createdAt,value
2019-05-05T00:00:24.551Z,6.60
2019-05-05T00:02:44.728Z,6.60
2019-05-05T00:04:49.597Z,6.50
2019-05-05T00:06:54.887Z,6.50
2019-05-05T00:08:58.667Z,6.50
2019-05-05T00:11:16.438Z,6.40
2019-05-05T00:13:37.214Z,6.40
2019-05-05T00:15:51.117Z,6.40
2019-05-05T00:17:55.093Z,6.30
2019-05-05T00:19:58.843Z,6.30
2019-05-05T00:22:04.431Z,6.30
2019-05-05T00:24:07.749Z,6.30
2019-05-05T00:26:11.432Z,6.30
2019-05-05T00:28:14.961Z,6.30
2019-05-05T00:30:18.643Z,6.30
2019-05-05T00:32:24.368Z,6.30
2019-05-05T00:34:27.448Z,6.20
2019-05-05T00:36:30.981Z,6.20
2019-05-05T00:38:35.197Z,6.10
2019-05-05T00:40:38.930Z,6.10
2019-05-05T00:42:42.610Z,6.10
2019-05-05T00:44:46.148Z,6.10
2019-05-05T00:46:57.268Z,6.10
2019-05-05T00:49:00.725Z,6.10
2019-05-05T00:51:04.715Z,6.10
2019-05-05T00:53:09.087Z,6.10
2019-05-05T00:55:15.002Z,6.00
2019-05-05T00:57:18.046Z,6.00
2019-05-05T00:59:25.124Z,6.00
2019-05-05T01:01:30.495Z,6.00
2019-05-05T01:03:34.985Z,6.00
2019-05-05T01:05:40.093Z,6.00
2019-05-05T01:07:44.390Z,6.10
2019-05-05T01:09:48.386Z,6.10
2019-05-05T01:11:52.275Z,6.00
2019-05-05T01:13:56.233Z,6.00
2019-05-05T01:16:00.053Z,6.00
2019-05-05T01:18:04.721Z,6.00
2019-05-05T01:20:09.382Z,5.90
2019-05-05T01:22:14.451Z,5.90
2019-05-05T01:24:18.159Z,5.90
2019-05-05T01:26:21.882Z,5.90
2019-05-05T01:28:25.593Z,5.90
2019-05-05T01:30:30.786Z,5.90
2019-05-05T01:32:38.929Z,5.90
2019-05-05T01:34:48.945Z,6.00
2019-05-05T01:36:54.974Z,5.90
2019-05-05T01:39:12.111Z,5.80
2019-05-05T01:41:20.533Z,5.80
2019-05-05T01:43:25.336Z,5.70
2019-05-05T01:45:29.076Z,5.70
2019-05-05T01:47:34.571Z,5.70
2019-05-05T01:49:37.802Z,5.60
2019-05-05T01:51:41.697Z,5.70
2019-05-05T01:53:45.161Z,5.70
2019-05-05T01:55:49.590Z,5.60
2019-05-05T01:57:54.408Z,5.60
2019-05-05T01:59:58.183Z,5.50
2019-05-05T02:02:01.856Z,5.60
2019-05-05T02:04:05.970Z,5.60
2019-05-05T02:06:10.178Z,5.60
2019-05-05T02:08:15.329Z,5.60
2019-05-05T02:10:19.446Z,5.60
2019-05-05T02:12:24.657Z,5.60
2019-05-05T02:14:28.336Z,5.60
2019-05-05T02:16:32.137Z,5.60
2019-05-05T02:18:35.860Z,5.60
2019-05-05T02:21:00.583Z,5.60
2019-05-05T02:23:05.027Z,5.60
2019-05-05T02:25:08.829Z,5.50
2019-05-05T02:27:14.587Z,5.40
2019-05-05T02:29:20.676Z,5.30
2019-05-05T02:31:31.782Z,5.30
2019-05-05T02:33:35.585Z,5.30
2019-05-05T02:35:39.182Z,5.20
2019-05-05T02:37:45.469Z,5.20
2019-05-05T02:39:57.894Z,5.10
2019-05-05T02:41:54.883Z,5.10
2019-05-05T02:43:59.084Z,5.00
2019-05-05T02:46:14.184Z,5.00
2019-05-05T02:48:18.440Z,5.00
2019-05-05T02:50:25.135Z,5.00
2019-05-05T02:52:30.446Z,4.90
2019-05-05T02:54:35.509Z,4.90
2019-05-05T02:56:44.969Z,4.90
2019-05-05T02:58:49.371Z,5.00
2019-05-05T03:00:55.241Z,5.00
2019-05-05T03:03:00.886Z,5.00
2019-05-05T03:05:05.558Z,4.90
2019-05-05T03:07:13.730Z,4.90
2019-05-05T03:09:18.613Z,4.90
2019-05-05T03:11:23.734Z,4.80
2019-05-05T03:13:29.134Z,4.70
2019-05-05T03:15:54.999Z,4.70
2019-05-05T03:17:59.748Z,4.70
2019-05-05T03:20:05.933Z,4.70
2019-05-05T03:22:09.633Z,4.70
2019-05-05T03:24:14.337Z,4.60
2019-05-05T03:26:18.397Z,4.60
2019-05-05T03:28:24.069Z,4.60
2019-05-05T03:30:28.529Z,4.60
2019-05-05T03:32:35.709Z,4.50
2019-05-05T03:34:38.473Z,4.50
2019-05-05T03:36:44.196Z,4.50
2019-05-05T03:38:48.245Z,4.50
2019-05-05T03:40:54.231Z,4.50
2019-05-05T03:43:00.005Z,4.60
2019-05-05T03:45:09.589Z,4.60
2019-05-05T03:47:14.036Z,4.60
2019-05-05T03:49:18.208Z,4.50
2019-05-05T03:51:24.235Z,4.60
2019-05-05T03:53:28.001Z,4.50
2019-05-05T03:55:31.768Z,4.50
2019-05-05T03:57:36.039Z,4.50
2019-05-05T03:59:44.291Z,4.50
2019-05-05T04:02:07.689Z,4.50
2019-05-05T04:04:28.921Z,4.50
2019-05-05T04:06:38.544Z,4.50
2019-05-05T04:08:44.445Z,4.40
2019-05-05T04:10:48.207Z,4.40
2019-05-05T04:12:53.974Z,4.30
2019-05-05T04:14:59.155Z,4.30
2019-05-05T04:17:06.018Z,4.30
2019-05-05T04:19:11.195Z,4.30
2019-05-05T04:21:14.777Z,4.30
2019-05-05T04:23:18.477Z,4.30
2019-05-05T04:25:21.968Z,4.30
2019-05-05T04:27:25.509Z,4.20
2019-05-05T04:29:29.141Z,4.20
2019-05-05T04:31:34.480Z,4.30
2019-05-05T04:33:38.872Z,4.20
2019-05-05T04:35:44.217Z,4.20
2019-05-05T04:37:47.577Z,4.20
2019-05-05T04:39:51.065Z,4.20
2019-05-05T04:41:55.054Z,4.20
2019-05-05T04:43:58.925Z,4.20
2019-05-05T04:46:04.467Z,4.20
2019-05-05T04:48:10.068Z,4.30
2019-05-05T04:50:17.955Z,4.30
2019-05-05T04:52:25.217Z,4.30
2019-05-05T04:54:45.381Z,4.30
2019-05-05T04:56:49.182Z,4.40
2019-05-05T04:58:54.433Z,4.40
2019-05-05T05:00:58.060Z,4.30
2019-05-05T05:03:19.443Z,4.30
2019-05-05T05:05:24.626Z,4.30
2019-05-05T05:07:28.342Z,4.40
2019-05-05T05:09:34.039Z,4.30
2019-05-05T05:11:37.505Z,4.40
2019-05-05T05:13:41.266Z,4.40
2019-05-05T05:15:45.030Z,4.40
2019-05-05T05:17:55.944Z,4.40
2019-05-05T05:19:59.413Z,4.40
2019-05-05T05:22:05.022Z,4.40
2019-05-05T05:24:08.129Z,4.40
2019-05-05T05:26:13.858Z,4.40
2019-05-05T05:28:17.568Z,4.50
2019-05-05T05:30:24.135Z,4.50
2019-05-05T05:32:27.249Z,4.50
2019-05-05T05:34:30.709Z,4.50
2019-05-05T05:36:34.165Z,4.50
2019-05-05T05:38:37.797Z,4.50
2019-05-05T05:40:45.383Z,4.50
2019-05-05T05:42:48.917Z,4.50
2019-05-05T05:44:54.094Z,4.50
2019-05-05T05:47:15.942Z,4.50
2019-05-05T05:49:30.470Z,4.50
2019-05-05T05:51:34.641Z,4.60
2019-05-05T05:53:38.237Z,4.70
2019-05-05T05:55:42.106Z,4.70
2019-05-05T05:57:45.567Z,4.70
2019-05-05T05:59:49.096Z,4.70
2019-05-05T06:02:06.087Z,4.70
2019-05-05T06:03:58.045Z,4.70
2019-05-05T06:06:01.573Z,4.70
2019-05-05T06:08:05.533Z,4.80
2019-05-05T06:10:21.458Z,4.80
2019-05-05T06:12:14.537Z,4.80
2019-05-05T06:14:18.068Z,4.70
2019-05-05T06:16:23.558Z,4.80
2019-05-05T06:18:27.313Z,4.90
2019-05-05T06:20:30.941Z,4.90
2019-05-05T06:22:34.727Z,4.90
2019-05-05T06:24:38.341Z,4.90
2019-05-05T06:26:44.364Z,5.00
2019-05-05T06:28:47.377Z,5.10
2019-05-05T06:30:51.102Z,5.10
2019-05-05T06:32:55.365Z,5.10
2019-05-05T06:34:58.905Z,5.10
2019-05-05T06:37:04.233Z,5.20
2019-05-05T06:39:08.398Z,5.20
2019-05-05T06:41:15.933Z,5.20
2019-05-05T06:43:25.469Z,5.30
2019-05-05T06:45:34.281Z,5.20
2019-05-05T06:47:39.573Z,5.30
2019-05-05T06:49:43.845Z,5.40
2019-05-05T06:51:47.497Z,5.40
2019-05-05T06:53:51.308Z,5.50
2019-05-05T06:55:54.862Z,5.40
2019-05-05T06:57:58.805Z,5.40
2019-05-05T07:00:03.694Z,5.40
2019-05-05T07:02:07.741Z,5.40
2019-05-05T07:04:11.208Z,5.50
2019-05-05T07:06:14.804Z,5.50
2019-05-05T07:08:18.361Z,5.50
2019-05-05T07:10:22.130Z,5.50
2019-05-05T07:12:25.934Z,5.50
2019-05-05T07:14:29.401Z,5.60
2019-05-05T07:16:34.524Z,5.60
2019-05-05T07:18:38.070Z,5.60
2019-05-05T07:20:41.529Z,5.60
2019-05-05T07:22:58.707Z,5.60
2019-05-05T07:24:50.637Z,5.60
2019-05-05T07:26:54.297Z,5.60
2019-05-05T07:28:58.129Z,5.60
2019-05-05T07:31:01.619Z,5.60
2019-05-05T07:33:05.124Z,5.60
2019-05-05T07:35:20.457Z,5.70
2019-05-05T07:37:24.861Z,5.70
2019-05-05T07:39:28.426Z,5.80
2019-05-05T07:41:33.940Z,5.70
2019-05-05T07:43:37.405Z,5.70
2019-05-05T07:45:40.865Z,5.80
2019-05-05T07:47:47.261Z,5.80
2019-05-05T07:49:50.177Z,5.80
2019-05-05T07:51:54.753Z,5.80
2019-05-05T07:53:58.849Z,5.80
2019-05-05T07:56:03.915Z,5.80
2019-05-05T07:58:07.974Z,5.80
2019-05-05T08:00:12.173Z,5.90
2019-05-05T08:02:15.705Z,5.90
2019-05-05T08:04:19.177Z,5.90
2019-05-05T08:06:23.710Z,5.90
2019-05-05T08:08:27.770Z,6.10
2019-05-05T08:10:31.229Z,6.10
2019-05-05T08:12:35.148Z,6.20
2019-05-05T08:14:38.673Z,6.30
2019-05-05T08:16:59.730Z,6.20
2019-05-05T08:19:08.948Z,6.20
2019-05-05T08:21:13.651Z,6.30
2019-05-05T08:23:29.141Z,6.30
2019-05-05T08:25:45.386Z,6.30
2019-05-05T08:28:04.285Z,6.30
2019-05-05T08:30:19.865Z,6.30
2019-05-05T08:32:27.742Z,6.40
2019-05-05T08:34:31.205Z,6.20
2019-05-05T08:36:35.005Z,6.30
2019-05-05T08:38:38.726Z,6.30
2019-05-05T08:40:43.872Z,6.30
2019-05-05T08:42:48.050Z,6.30
2019-05-05T08:44:53.795Z,6.40
2019-05-05T08:46:57.396Z,6.40
2019-05-05T08:49:00.920Z,6.50
2019-05-05T08:51:05.083Z,6.50
2019-05-05T08:53:08.692Z,6.50
2019-05-05T08:55:13.947Z,6.50
2019-05-05T08:57:17.665Z,6.50
2019-05-05T08:59:21.541Z,6.50
2019-05-05T09:01:25.218Z,6.70
2019-05-05T09:03:28.681Z,6.80
2019-05-05T09:05:34.289Z,6.90
2019-05-05T09:07:37.804Z,7.00
2019-05-05T09:09:41.445Z,7.10
2019-05-05T09:11:45.378Z,7.20
2019-05-05T09:13:48.911Z,7.10
2019-05-05T09:15:54.363Z,7.20
2019-05-05T09:17:58.065Z,7.20
2019-05-05T09:20:01.793Z,7.10
2019-05-05T09:22:09.636Z,7.10
2019-05-05T09:24:15.362Z,7.10
2019-05-05T09:26:23.979Z,7.20
2019-05-05T09:28:29.517Z,7.20
2019-05-05T09:30:39.998Z,7.30
2019-05-05T09:32:44.002Z,7.50
2019-05-05T09:34:47.870Z,7.60
2019-05-05T09:36:51.363Z,7.70
2019-05-05T09:38:54.889Z,7.60
2019-05-05T09:40:58.775Z,7.50
2019-05-05T09:43:03.872Z,7.50
2019-05-05T09:45:09.475Z,7.50
2019-05-05T09:47:13.824Z,7.50
2019-05-05T09:49:17.513Z,7.40
2019-05-05T09:51:24.039Z,7.50
2019-05-05T09:53:27.453Z,7.50
2019-05-05T09:55:31.177Z,7.50
2019-05-05T09:57:35.653Z,7.50
2019-05-05T09:59:40.283Z,7.40
2019-05-05T10:01:44.581Z,7.40
2019-05-05T10:03:48.984Z,7.50
2019-05-05T10:05:54.091Z,7.50
2019-05-05T10:07:57.766Z,7.50
2019-05-05T10:10:01.294Z,7.60
2019-05-05T10:12:05.138Z,7.60
2019-05-05T10:14:09.101Z,7.60
2019-05-05T10:16:14.311Z,7.70
2019-05-05T10:18:18.319Z,7.80
2019-05-05T10:20:23.647Z,7.80
2019-05-05T10:22:27.275Z,7.80
2019-05-05T10:24:33.884Z,7.70
2019-05-05T10:26:37.625Z,7.80
2019-05-05T10:28:41.429Z,7.80
2019-05-05T10:30:45.404Z,7.80
2019-05-05T10:32:49.201Z,7.90
2019-05-05T10:35:04.471Z,7.90
2019-05-05T10:37:08.517Z,8.00
2019-05-05T10:39:30.385Z,8.10
2019-05-05T10:41:34.244Z,8.30
2019-05-05T10:43:38.002Z,8.40
2019-05-05T10:45:43.882Z,8.50
2019-05-05T10:47:47.021Z,8.50
2019-05-05T10:49:50.858Z,8.50
2019-05-05T10:51:54.681Z,8.50
2019-05-05T10:53:58.222Z,8.50
2019-05-05T10:56:04.280Z,8.50
2019-05-05T10:58:07.451Z,8.60
2019-05-05T11:00:15.238Z,8.60
2019-05-05T11:02:17.658Z,8.60
2019-05-05T11:04:21.725Z,8.70
2019-05-05T11:06:25.350Z,8.60
2019-05-05T11:08:30.802Z,8.70
2019-05-05T11:10:35.242Z,8.80
2019-05-05T11:12:39.133Z,8.90
2019-05-05T11:14:44.355Z,9.00
2019-05-05T11:16:48.092Z,9.00
2019-05-05T11:18:53.485Z,9.10
2019-05-05T11:20:57.721Z,9.20
2019-05-05T11:23:01.355Z,9.30
2019-05-05T11:25:06.845Z,9.30
2019-05-05T11:27:10.508Z,9.40
2019-05-05T11:29:15.476Z,9.40
2019-05-05T11:31:19.274Z,9.50
2019-05-05T11:33:40.545Z,9.70
2019-05-05T11:35:57.784Z,9.80
2019-05-05T11:38:03.150Z,9.90
2019-05-05T11:40:07.693Z,9.80
2019-05-05T11:42:11.300Z,9.70
2019-05-05T11:44:15.355Z,9.70
2019-05-05T11:46:19.070Z,9.70
2019-05-05T11:48:24.029Z,9.70
2019-05-05T11:50:28.174Z,9.70
2019-05-05T11:52:33.726Z,9.70
2019-05-05T11:54:37.374Z,9.70
2019-05-05T11:56:40.979Z,9.60
2019-05-05T11:58:45.393Z,9.60
2019-05-05T12:00:50.782Z,9.60
2019-05-05T12:02:54.436Z,9.60
2019-05-05T12:04:57.964Z,9.70
2019-05-05T12:07:01.497Z,9.70
2019-05-05T12:09:09.767Z,9.60
2019-05-05T12:11:15.029Z,9.60
2019-05-05T12:13:19.545Z,9.60
2019-05-05T12:15:23.877Z,9.60
2019-05-05T12:17:37.014Z,9.40
2019-05-05T12:19:40.940Z,9.40
2019-05-05T12:21:45.329Z,9.30
2019-05-05T12:23:49.752Z,9.40
2019-05-05T12:25:57.252Z,9.50
2019-05-05T12:28:04.226Z,9.60
2019-05-05T12:30:08.661Z,9.70
2019-05-05T12:32:14.872Z,9.80
2019-05-05T12:34:18.291Z,9.70
2019-05-05T12:36:23.668Z,9.70
2019-05-05T12:38:27.759Z,9.60
2019-05-05T12:40:33.637Z,9.60
2019-05-05T12:42:37.083Z,9.70
2019-05-05T12:44:42.826Z,9.70
2019-05-05T12:46:48.370Z,9.70
2019-05-05T12:48:54.239Z,9.70
2019-05-05T12:50:57.961Z,9.70
2019-05-05T12:53:04.068Z,9.80
2019-05-05T12:55:07.806Z,9.90
2019-05-05T12:57:13.554Z,10.00
2019-05-05T12:59:18.683Z,10.00
2019-05-05T13:01:33.448Z,10.10
2019-05-05T13:03:38.535Z,10.20
2019-05-05T13:05:44.632Z,10.30
2019-05-05T13:07:48.589Z,10.50
2019-05-05T13:09:54.378Z,10.40
2019-05-05T13:11:58.673Z,10.50
2019-05-05T13:14:03.676Z,10.50
2019-05-05T13:16:07.665Z,10.50
2019-05-05T13:18:11.369Z,10.50
2019-05-05T13:20:19.411Z,10.50
2019-05-05T13:22:30.235Z,10.40
2019-05-05T13:24:54.338Z,10.40
2019-05-05T13:26:59.931Z,10.20
2019-05-05T13:29:03.556Z,10.20
2019-05-05T13:31:08.034Z,10.10
2019-05-05T13:33:14.031Z,10.10
2019-05-05T13:35:17.322Z,10.10
2019-05-05T13:37:21.789Z,10.10
2019-05-05T13:39:25.713Z,10.00
2019-05-05T13:41:30.010Z,10.00
2019-05-05T13:43:34.386Z,10.10
2019-05-05T13:45:56.281Z,10.20
2019-05-05T13:47:59.890Z,10.40
2019-05-05T13:50:07.573Z,10.40
2019-05-05T13:52:11.441Z,10.40
2019-05-05T13:54:14.970Z,10.30
2019-05-05T13:56:18.619Z,10.40
2019-05-05T13:58:22.164Z,10.40
2019-05-05T14:00:26.041Z,10.30
2019-05-05T14:02:30.557Z,10.20
2019-05-05T14:04:34.476Z,10.30
2019-05-05T14:06:38.026Z,10.30
2019-05-05T14:08:41.857Z,10.20
2019-05-05T14:10:45.706Z,10.20
2019-05-05T14:12:49.668Z,10.30
2019-05-05T14:14:54.650Z,10.30
2019-05-05T14:16:59.221Z,10.40
2019-05-05T14:19:04.393Z,10.30
2019-05-05T14:21:08.277Z,10.20
2019-05-05T14:23:12.189Z,10.20
2019-05-05T14:25:17.705Z,10.20
2019-05-05T14:27:24.236Z,10.20
2019-05-05T14:29:45.597Z,10.30
2019-05-05T14:31:52.144Z,10.30
2019-05-05T14:34:00.292Z,10.30
2019-05-05T14:36:14.309Z,10.30
2019-05-05T14:38:19.842Z,10.40
2019-05-05T14:40:23.855Z,10.40
2019-05-05T14:42:27.437Z,10.40
2019-05-05T14:44:34.210Z,10.40
2019-05-05T14:46:38.410Z,10.40
2019-05-05T14:48:44.081Z,10.30
2019-05-05T14:50:47.880Z,10.40
2019-05-05T14:52:53.367Z,10.30
2019-05-05T14:54:56.758Z,10.20
2019-05-05T14:57:00.410Z,10.20
2019-05-05T14:59:04.907Z,10.30
2019-05-05T15:01:08.937Z,10.20
2019-05-05T15:03:13.974Z,10.10
2019-05-05T15:05:36.590Z,10.00
2019-05-05T15:07:42.058Z,9.90
2019-05-05T15:09:54.637Z,9.90
2019-05-05T15:12:00.085Z,9.80
2019-05-05T15:14:06.774Z,9.80
2019-05-05T15:16:11.212Z,9.80
2019-05-05T15:18:14.814Z,9.80
2019-05-05T15:20:18.727Z,9.70
2019-05-05T15:22:23.910Z,9.70
2019-05-05T15:24:27.939Z,9.70
2019-05-05T15:26:31.539Z,9.70
2019-05-05T15:28:35.072Z,9.70
2019-05-05T15:30:38.723Z,9.70
2019-05-05T15:32:43.810Z,9.60
2019-05-05T15:34:48.253Z,9.60
2019-05-05T15:36:51.868Z,9.60
2019-05-05T15:38:55.687Z,9.60
2019-05-05T15:40:59.313Z,9.50
2019-05-05T15:43:03.798Z,9.50
2019-05-05T15:45:08.213Z,9.50
2019-05-05T15:47:12.147Z,9.50
2019-05-05T15:49:15.681Z,9.50
2019-05-05T15:51:19.518Z,9.50
2019-05-05T15:53:24.855Z,9.50
2019-05-05T15:55:29.287Z,9.40
2019-05-05T15:57:33.610Z,9.40
2019-05-05T15:59:37.465Z,9.40
2019-05-05T16:01:43.446Z,9.40
2019-05-05T16:03:47.124Z,9.40
2019-05-05T16:05:51.474Z,9.50
2019-05-05T16:07:55.010Z,9.40
2019-05-05T16:09:58.718Z,9.40
2019-05-05T16:12:03.793Z,9.40
2019-05-05T16:14:08.309Z,9.40
2019-05-05T16:16:23.654Z,9.40
2019-05-05T16:18:32.097Z,9.40
2019-05-05T16:20:40.106Z,9.40
2019-05-05T16:22:45.298Z,9.40
2019-05-05T16:25:08.038Z,9.40
2019-05-05T16:27:21.116Z,9.40
2019-05-05T16:29:17.266Z,9.50
2019-05-05T16:31:21.289Z,9.50
2019-05-05T16:33:25.025Z,9.50
2019-05-05T16:35:28.866Z,9.40
2019-05-05T16:37:33.497Z,9.40
2019-05-05T16:39:37.386Z,9.40
2019-05-05T16:41:43.295Z,9.40
2019-05-05T16:43:46.513Z,9.40
2019-05-05T16:45:50.233Z,9.40
2019-05-05T16:47:54.517Z,9.40
2019-05-05T16:49:58.726Z,9.30
2019-05-05T16:52:04.317Z,9.30
2019-05-05T16:54:09.634Z,9.30
2019-05-05T16:56:17.102Z,9.30
2019-05-05T16:58:21.003Z,9.30
2019-05-05T17:00:31.030Z,9.30
2019-05-05T17:02:35.890Z,9.20
2019-05-05T17:04:39.542Z,9.20
2019-05-05T17:06:46.728Z,9.20
2019-05-05T17:08:50.662Z,9.20
2019-05-05T17:10:54.767Z,9.10
2019-05-05T17:13:02.336Z,9.10
2019-05-05T17:15:10.401Z,9.20
2019-05-05T17:17:16.286Z,9.20
2019-05-05T17:19:23.179Z,9.10
2019-05-05T17:21:34.165Z,9.10
2019-05-05T17:23:37.815Z,9.10
2019-05-05T17:25:41.666Z,9.10
2019-05-05T17:27:50.859Z,9.10
2019-05-05T17:29:55.966Z,9.10
2019-05-05T17:31:58.045Z,9.20
2019-05-05T17:34:04.140Z,9.20
2019-05-05T17:36:10.607Z,9.20
2019-05-05T17:38:16.854Z,9.20
2019-05-05T17:40:33.680Z,9.10
2019-05-05T17:42:43.933Z,9.10
2019-05-05T17:44:48.362Z,9.10
2019-05-05T17:46:57.049Z,9.10
2019-05-05T17:49:04.585Z,9.00
2019-05-05T17:51:25.785Z,9.00
2019-05-05T17:53:30.896Z,9.00
2019-05-05T17:55:36.140Z,8.90
2019-05-05T17:57:39.665Z,8.90
2019-05-05T17:59:44.135Z,8.90
2019-05-05T18:01:48.050Z,8.80
2019-05-05T18:03:51.879Z,8.80
2019-05-05T18:06:14.386Z,8.80
2019-05-05T18:08:36.752Z,8.80
2019-05-05T18:10:46.637Z,8.80
2019-05-05T18:13:09.236Z,8.80
2019-05-05T18:15:33.997Z,8.70
2019-05-05T18:17:37.312Z,8.70
2019-05-05T18:19:43.483Z,8.70
2019-05-05T18:21:47.161Z,8.70
2019-05-05T18:23:51.061Z,8.60
2019-05-05T18:25:54.910Z,8.60
2019-05-05T18:27:58.437Z,8.60
2019-05-05T18:30:03.967Z,8.50
2019-05-05T18:32:08.089Z,8.60
2019-05-05T18:34:13.376Z,8.50
2019-05-05T18:36:16.804Z,8.50
2019-05-05T18:38:20.352Z,8.50
2019-05-05T18:40:24.173Z,8.40
2019-05-05T18:42:27.758Z,8.40
2019-05-05T18:44:33.525Z,8.40
2019-05-05T18:46:37.945Z,8.40
2019-05-05T18:48:42.148Z,8.40
2019-05-05T18:50:46.030Z,8.30
2019-05-05T18:52:49.829Z,8.40
2019-05-05T18:54:54.462Z,8.40
2019-05-05T18:56:58.661Z,8.30
2019-05-05T18:59:04.603Z,8.40
2019-05-05T19:01:18.918Z,8.40
2019-05-05T19:03:40.337Z,8.40
2019-05-05T19:05:45.858Z,8.30
2019-05-05T19:07:55.371Z,8.30
2019-05-05T19:09:57.521Z,8.30
2019-05-05T19:12:00.995Z,8.30
2019-05-05T19:14:04.748Z,8.30
2019-05-05T19:16:08.472Z,8.20
2019-05-05T19:18:14.041Z,8.30
2019-05-05T19:20:19.441Z,8.20
2019-05-05T19:22:23.040Z,8.20
2019-05-05T19:24:27.213Z,8.20
2019-05-05T19:26:31.117Z,8.20
2019-05-05T19:28:42.048Z,8.20
2019-05-05T19:30:40.433Z,8.20
2019-05-05T19:32:44.577Z,8.20
2019-05-05T19:34:48.984Z,8.20
2019-05-05T19:36:54.668Z,8.20
2019-05-05T19:38:58.336Z,8.20
2019-05-05T19:41:03.963Z,8.20
2019-05-05T19:43:07.570Z,8.20
2019-05-05T19:45:11.323Z,8.20
2019-05-05T19:47:16.818Z,8.20
2019-05-05T19:49:20.390Z,8.20
2019-05-05T19:51:25.526Z,8.20
2019-05-05T19:53:29.357Z,8.20
2019-05-05T19:55:36.212Z,8.20
2019-05-05T19:57:39.426Z,8.20
2019-05-05T19:59:44.707Z,8.10
2019-05-05T20:01:49.149Z,8.20
2019-05-05T20:03:52.854Z,8.20
2019-05-05T20:05:56.882Z,8.20
2019-05-05T20:08:00.418Z,8.20
2019-05-05T20:10:05.745Z,8.10
2019-05-05T20:12:09.641Z,8.10
2019-05-05T20:14:15.175Z,8.10
2019-05-05T20:16:27.233Z,8.10
2019-05-05T20:18:30.801Z,8.10
2019-05-05T20:20:34.658Z,8.10
2019-05-05T20:22:38.197Z,8.10
2019-05-05T20:24:42.315Z,8.10
2019-05-05T20:26:47.406Z,8.10
2019-05-05T20:28:50.882Z,8.10
2019-05-05T20:30:54.441Z,8.10
2019-05-05T20:33:08.601Z,8.10
2019-05-05T20:35:14.825Z,8.10
2019-05-05T20:37:20.540Z,8.10
2019-05-05T20:39:24.925Z,8.10
2019-05-05T20:41:28.565Z,8.10
2019-05-05T20:43:32.362Z,8.10
2019-05-05T20:45:36.378Z,8.10
2019-05-05T20:47:43.857Z,8.10
2019-05-05T20:49:47.049Z,8.10
2019-05-05T20:51:50.521Z,8.10
2019-05-05T20:53:54.500Z,8.10
2019-05-05T20:55:58.342Z,8.00
2019-05-05T20:58:04.469Z,8.00
2019-05-05T21:00:09.846Z,8.10
2019-05-05T21:02:13.760Z,8.00
2019-05-05T21:04:17.657Z,8.10
2019-05-05T21:06:21.969Z,8.00
2019-05-05T21:08:25.865Z,8.10
2019-05-05T21:10:29.642Z,8.00
2019-05-05T21:12:41.888Z,8.00
2019-05-05T21:14:39.509Z,8.00
2019-05-05T21:16:44.045Z,7.90
2019-05-05T21:18:48.186Z,8.00
2019-05-05T21:20:52.089Z,7.90
2019-05-05T21:22:58.349Z,8.00
2019-05-05T21:25:01.950Z,7.90
2019-05-05T21:27:05.617Z,7.90
2019-05-05T21:29:09.417Z,7.90
2019-05-05T21:31:14.510Z,7.90
2019-05-05T21:33:18.161Z,7.90
2019-05-05T21:35:23.888Z,7.90
2019-05-05T21:37:27.326Z,7.80
2019-05-05T21:39:31.125Z,7.80
2019-05-05T21:41:34.901Z,7.90
2019-05-05T21:43:39.393Z,7.90
2019-05-05T21:45:44.431Z,7.90
2019-05-05T21:47:48.161Z,7.80
2019-05-05T21:49:54.255Z,7.90
2019-05-05T21:52:17.463Z,7.90
2019-05-05T21:54:35.056Z,7.80
2019-05-05T21:56:46.137Z,7.80
2019-05-05T21:58:49.669Z,7.80
2019-05-05T22:00:54.972Z,7.80
2019-05-05T22:02:59.313Z,7.80
2019-05-05T22:05:04.067Z,7.80
2019-05-05T22:07:07.862Z,7.80
2019-05-05T22:09:12.269Z,7.80
2019-05-05T22:11:16.046Z,7.80
2019-05-05T22:13:19.581Z,7.70
2019-05-05T22:15:23.353Z,7.70
2019-05-05T22:17:26.888Z,7.70
2019-05-05T22:19:48.367Z,7.70
2019-05-05T22:22:11.829Z,7.70
2019-05-05T22:24:19.561Z,7.70
2019-05-05T22:26:24.007Z,7.70
2019-05-05T22:28:27.689Z,7.70
2019-05-05T22:30:31.542Z,7.70
2019-05-05T22:32:35.077Z,7.70
2019-05-05T22:34:38.545Z,7.70
2019-05-05T22:36:42.093Z,7.70
2019-05-05T22:38:45.638Z,7.70
2019-05-05T22:40:49.546Z,7.70
2019-05-05T22:42:54.619Z,7.80
2019-05-05T22:44:58.441Z,7.70
2019-05-05T22:47:04.494Z,7.70
2019-05-05T22:49:07.429Z,7.70
2019-05-05T22:51:11.334Z,7.70
2019-05-05T22:53:16.224Z,7.80
2019-05-05T22:55:20.085Z,7.70
2019-05-05T22:57:24.713Z,7.70
2019-05-05T22:59:28.329Z,7.70
2019-05-05T23:01:32.061Z,7.70
2019-05-05T23:03:42.895Z,7.70
2019-05-05T23:05:51.649Z,7.80
2019-05-05T23:07:55.184Z,7.70
2019-05-05T23:09:58.645Z,7.70
2019-05-05T23:12:04.091Z,7.70
2019-05-05T23:14:25.180Z,7.70
2019-05-05T23:16:36.273Z,7.70
2019-05-05T23:18:39.797Z,7.60
2019-05-05T23:20:47.983Z,7.60
2019-05-05T23:22:58.769Z,7.60
2019-05-05T23:25:04.277Z,7.60
2019-05-05T23:27:08.206Z,7.50
2019-05-05T23:29:12.606Z,7.50
2019-05-05T23:31:16.261Z,7.40
2019-05-05T23:33:19.781Z,7.40
2019-05-05T23:35:24.067Z,7.50
2019-05-05T23:37:27.877Z,7.40
2019-05-05T23:39:31.518Z,7.40
2019-05-05T23:41:36.497Z,7.40
2019-05-05T23:43:40.712Z,7.40
2019-05-05T23:45:44.842Z,7.40
2019-05-05T23:47:49.067Z,7.40
2019-05-05T23:49:53.777Z,7.30
2019-05-05T23:51:57.572Z,7.30
2019-05-05T23:54:01.042Z,7.30
2019-05-05T23:56:04.994Z,7.30
2019-05-05T23:58:08.465Z,7.30
